sim
Sign-in with your pilot id or email,
or register
Callsign
Passwort

Schedule Details

Flight Number: RYR9116 (1)
Departure: Paris Beauvais-Tille Airport (LFOB) at 14:30
Arrival: Bratislava M. R. Stefanik Airport (LZIB) at 16:35
Route: Ryanair Passenger Schedule. Enter filed route here before submitting Pirep.

Weather Information
Getting current METAR information for LFOB 280300Z AUTO VRB02KT CAVOK 10/07 Q1032 NOSIG
Getting current METAR information for LZIB 280300Z 26004KT CAVOK 12/06 Q1025

Schedule Frequency

Route Map